sensor_id;sensor_type;location;lat;lon;timestamp;pressure;altitude;pressure_sealevel;temperature;humidity
9538;BME280;4807;48.024;11.726;2023-01-29T00:00:12;95810.59;;;-0.06;80.28
9538;BME280;4807;48.024;11.726;2023-01-29T00:04:09;95804.66;;;0.03;79.86
9538;BME280;4807;48.024;11.726;2023-01-29T00:08:17;95813.59;;;0.12;79.46
9538;BME280;4807;48.024;11.726;2023-01-29T00:12:25;95799.78;;;-0.02;80.34
9538;BME280;4807;48.024;11.726;2023-01-29T00:16:22;95800.94;;;-0.06;79.84
9538;BME280;4807;48.024;11.726;2023-01-29T00:20:26;95796.28;;;-0.13;79.77
9538;BME280;4807;48.024;11.726;2023-01-29T00:23:47;95799.38;;;-0.19;81.45
9538;BME280;4807;48.024;11.726;2023-01-29T00:27:35;95796.16;;;-0.23;81.76
9538;BME280;4807;48.024;11.726;2023-01-29T00:31:38;95799.59;;;-0.22;80.78
9538;BME280;4807;48.024;11.726;2023-01-29T00:35:30;95807.91;;;-0.28;80.81
9538;BME280;4807;48.024;11.726;2023-01-29T00:39:33;95814.19;;;-0.31;81.57
9538;BME280;4807;48.024;11.726;2023-01-29T00:52:06;95830.63;;;-0.29;79.73
9538;BME280;4807;48.024;11.726;2023-01-29T00:56:01;95820.78;;;-0.25;79.28
9538;BME280;4807;48.024;11.726;2023-01-29T00:59:49;95807.69;;;-0.25;79.38
9538;BME280;4807;48.024;11.726;2023-01-29T01:03:49;95818.28;;;-0.27;79.12
9538;BME280;4807;48.024;11.726;2023-01-29T01:08:03;95817.66;;;-0.30;78.51
9538;BME280;4807;48.024;11.726;2023-01-29T01:12:12;95821.22;;;-0.31;79.04
9538;BME280;4807;48.024;11.726;2023-01-29T01:25:22;95819.06;;;-0.38;79.40
9538;BME280;4807;48.024;11.726;2023-01-29T01:28:57;95826.44;;;-0.31;79.89
9538;BME280;4807;48.024;11.726;2023-01-29T01:32:54;95836.06;;;-0.32;80.26
9538;BME280;4807;48.024;11.726;2023-01-29T01:41:00;95825.78;;;-0.22;80.96
9538;BME280;4807;48.024;11.726;2023-01-29T01:44:58;95820.31;;;-0.19;80.69
9538;BME280;4807;48.024;11.726;2023-01-29T01:48:50;95827.69;;;-0.24;81.11
9538;BME280;4807;48.024;11.726;2023-01-29T01:53:18;95830.56;;;-0.16;81.55
9538;BME280;4807;48.024;11.726;2023-01-29T01:56:58;95826.97;;;-0.15;81.72
9538;BME280;4807;48.024;11.726;2023-01-29T02:00:33;95825.19;;;-0.15;81.08
9538;BME280;4807;48.024;11.726;2023-01-29T02:04:28;95829.72;;;-0.17;81.89
9538;BME280;4807;48.024;11.726;2023-01-29T02:08:41;95828.44;;;-0.11;81.13
9538;BME280;4807;48.024;11.726;2023-01-29T02:12:47;95838.91;;;-0.11;81.39
9538;BME280;4807;48.024;11.726;2023-01-29T02:16:21;95832.38;;;-0.06;81.19
9538;BME280;4807;48.024;11.726;2023-01-29T02:30:05;95841.72;;;-0.25;80.67
9538;BME280;4807;48.024;11.726;2023-01-29T02:34:15;95842.00;;;-0.41;81.38
9538;BME280;4807;48.024;11.726;2023-01-29T02:38:43;95836.16;;;-0.45;81.80
9538;BME280;4807;48.024;11.726;2023-01-29T02:42:45;95844.22;;;-0.48;81.23
9538;BME280;4807;48.024;11.726;2023-01-29T02:48:18;95832.22;;;-0.50;82.53
9538;BME280;4807;48.024;11.726;2023-01-29T02:52:08;95832.81;;;-0.47;81.33
9538;BME280;4807;48.024;11.726;2023-01-29T02:56:05;95819.41;;;-0.42;82.97
9538;BME280;4807;48.024;11.726;2023-01-29T03:00:32;95824.81;;;-0.21;81.14
9538;BME280;4807;48.024;11.726;2023-01-29T03:04:28;95831.25;;;-0.25;81.59
9538;BME280;4807;48.024;11.726;2023-01-29T03:08:13;95818.44;;;-0.17;81.10
9538;BME280;4807;48.024;11.726;2023-01-29T03:12:01;95812.94;;;-0.14;81.46
9538;BME280;4807;48.024;11.726;2023-01-29T03:15:45;95825.56;;;-0.19;81.45
9538;BME280;4807;48.024;11.726;2023-01-29T03:19:38;95826.97;;;-0.26;80.90
9538;BME280;4807;48.024;11.726;2023-01-29T03:23:28;95825.56;;;-0.19;80.57
9538;BME280;4807;48.024;11.726;2023-01-29T03:27:37;95811.06;;;-0.12;80.96
9538;BME280;4807;48.024;11.726;2023-01-29T03:31:42;95804.84;;;-0.22;81.39
9538;BME280;4807;48.024;11.726;2023-01-29T03:35:28;95810.91;;;-0.22;80.38
9538;BME280;4807;48.024;11.726;2023-01-29T03:39:51;95817.81;;;-0.21;80.33
9538;BME280;4807;48.024;11.726;2023-01-29T03:43:54;95814.00;;;-0.28;80.26
9538;BME280;4807;48.024;11.726;2023-01-29T03:47:41;95817.44;;;-0.27;80.18
9538;BME280;4807;48.024;11.726;2023-01-29T03:55:34;95824.44;;;-0.28;79.76
9538;BME280;4807;48.024;11.726;2023-01-29T03:59:11;95815.72;;;-0.40;80.34
9538;BME280;4807;48.024;11.726;2023-01-29T04:03:39;95814.94;;;-0.29;80.69
9538;BME280;4807;48.024;11.726;2023-01-29T04:07:16;95806.72;;;-0.35;80.30
9538;BME280;4807;48.024;11.726;2023-01-29T04:11:14;95807.88;;;-0.40;80.92
9538;BME280;4807;48.024;11.726;2023-01-29T04:15:36;95783.38;;;-0.39;81.14
9538;BME280;4807;48.024;11.726;2023-01-29T04:19:18;95782.78;;;-0.42;80.63
9538;BME280;4807;48.024;11.726;2023-01-29T04:23:19;95777.19;;;-0.49;80.93
9538;BME280;4807;48.024;11.726;2023-01-29T04:27:20;95773.47;;;-0.46;81.29
9538;BME280;4807;48.024;11.726;2023-01-29T04:31:33;95775.88;;;-0.43;81.20
9538;BME280;4807;48.024;11.726;2023-01-29T04:35:31;95774.31;;;-0.46;80.82
9538;BME280;4807;48.024;11.726;2023-01-29T04:40:27;95779.44;;;-0.44;81.00
9538;BME280;4807;48.024;11.726;2023-01-29T04:44:03;95777.19;;;-0.49;81.29
9538;BME280;4807;48.024;11.726;2023-01-29T04:48:23;95782.84;;;-0.55;80.53
9538;BME280;4807;48.024;11.726;2023-01-29T05:02:38;95790.00;;;-0.57;80.09
9538;BME280;4807;48.024;11.726;2023-01-29T05:08:07;95783.66;;;-0.65;81.05
9538;BME280;4807;48.024;11.726;2023-01-29T05:12:24;95786.38;;;-0.67;81.85
9538;BME280;4807;48.024;11.726;2023-01-29T05:30:44;95811.66;;;-0.44;81.05
9538;BME280;4807;48.024;11.726;2023-01-29T05:40:25;95810.38;;;-0.38;80.63
9538;BME280;4807;48.024;11.726;2023-01-29T05:44:49;95821.91;;;-0.41;79.56
9538;BME280;4807;48.024;11.726;2023-01-29T05:49:03;95835.09;;;-0.42;81.33
9538;BME280;4807;48.024;11.726;2023-01-29T05:53:33;95842.84;;;-0.41;80.40
9538;BME280;4807;48.024;11.726;2023-01-29T05:57:56;95832.38;;;-0.41;80.85
9538;BME280;4807;48.024;11.726;2023-01-29T06:02:39;95832.81;;;-0.47;80.93
9538;BME280;4807;48.024;11.726;2023-01-29T06:07:46;95839.72;;;-0.46;81.53
9538;BME280;4807;48.024;11.726;2023-01-29T06:12:07;95820.34;;;-0.43;81.30
9538;BME280;4807;48.024;11.726;2023-01-29T06:27:01;95827.63;;;-0.35;81.40
9538;BME280;4807;48.024;11.726;2023-01-29T06:31:50;95838.09;;;-0.35;80.93
9538;BME280;4807;48.024;11.726;2023-01-29T06:56:44;95852.63;;;-0.31;80.28
9538;BME280;4807;48.024;11.726;2023-01-29T07:47:46;95809.47;;;0.43;77.42
9538;BME280;4807;48.024;11.726;2023-01-29T07:52:53;95812.84;;;0.56;77.17
9538;BME280;4807;48.024;11.726;2023-01-29T07:59:06;95807.34;;;0.70;76.28
9538;BME280;4807;48.024;11.726;2023-01-29T08:32:56;95800.09;;;1.28;69.16
9538;BME280;4807;48.024;11.726;2023-01-29T09:13:10;95840.69;;;1.12;64.33
9538;BME280;4807;48.024;11.726;2023-01-29T09:18:04;95851.88;;;0.92;65.72
9538;BME280;4807;48.024;11.726;2023-01-29T09:23:55;95857.13;;;0.70;65.64
9538;BME280;4807;48.024;11.726;2023-01-29T10:56:34;95861.44;;;2.74;61.76
9538;BME280;4807;48.024;11.726;2023-01-29T11:00:03;95861.66;;;2.91;62.30
9538;BME280;4807;48.024;11.726;2023-01-29T11:03:22;95856.22;;;2.83;61.57
9538;BME280;4807;48.024;11.726;2023-01-29T11:06:36;95851.16;;;3.01;61.61
9538;BME280;4807;48.024;11.726;2023-01-29T11:09:52;95847.22;;;2.14;63.87
9538;BME280;4807;48.024;11.726;2023-01-29T11:13:04;95852.69;;;2.22;62.71
9538;BME280;4807;48.024;11.726;2023-01-29T11:16:12;95845.50;;;2.24;62.58
9538;BME280;4807;48.024;11.726;2023-01-29T11:19:37;95845.16;;;1.97;63.30
9538;BME280;4807;48.024;11.726;2023-01-29T11:22:53;95845.34;;;1.84;63.87
9538;BME280;4807;48.024;11.726;2023-01-29T11:26:03;95843.41;;;2.18;63.60
9538;BME280;4807;48.024;11.726;2023-01-29T11:29:37;95843.50;;;2.37;62.68
9538;BME280;4807;48.024;11.726;2023-01-29T11:32:53;95836.84;;;2.12;63.10
9538;BME280;4807;48.024;11.726;2023-01-29T11:36:30;95835.06;;;2.13;63.78
9538;BME280;4807;48.024;11.726;2023-01-29T11:39:44;95842.09;;;1.91;62.93
9538;BME280;4807;48.024;11.726;2023-01-29T11:42:53;95833.25;;;1.92;64.01
9538;BME280;4807;48.024;11.726;2023-01-29T11:46:03;95834.94;;;1.94;64.62
9538;BME280;4807;48.024;11.726;2023-01-29T11:49:26;95815.78;;;2.03;63.77
9538;BME280;4807;48.024;11.726;2023-01-29T11:52:40;95822.81;;;0.95;66.46
9538;BME280;4807;48.024;11.726;2023-01-29T11:55:50;95814.16;;;1.27;66.52
9538;BME280;4807;48.024;11.726;2023-01-29T11:59:00;95807.44;;;1.45;65.73
9538;BME280;4807;48.024;11.726;2023-01-29T12:02:22;95791.13;;;1.30;65.24
9538;BME280;4807;48.024;11.726;2023-01-29T12:05:33;95778.25;;;1.70;64.89
9538;BME280;4807;48.024;11.726;2023-01-29T12:08:43;95773.13;;;2.10;64.02
9538;BME280;4807;48.024;11.726;2023-01-29T12:11:51;95763.19;;;2.44;63.33
9538;BME280;4807;48.024;11.726;2023-01-29T12:15:17;95749.59;;;2.69;62.46
9538;BME280;4807;48.024;11.726;2023-01-29T12:18:34;95736.09;;;2.84;61.90
9538;BME280;4807;48.024;11.726;2023-01-29T12:21:49;95720.03;;;2.96;61.87
9538;BME280;4807;48.024;11.726;2023-01-29T12:25:08;95719.03;;;2.78;61.94
9538;BME280;4807;48.024;11.726;2023-01-29T12:28:36;95717.84;;;3.11;61.87
9538;BME280;4807;48.024;11.726;2023-01-29T12:31:56;95718.91;;;2.80;61.30
9538;BME280;4807;48.024;11.726;2023-01-29T12:35:15;95727.97;;;2.56;62.77
9538;BME280;4807;48.024;11.726;2023-01-29T12:38:27;95725.28;;;2.87;61.40
9538;BME280;4807;48.024;11.726;2023-01-29T12:41:44;95738.00;;;2.82;61.57
9538;BME280;4807;48.024;11.726;2023-01-29T12:44:58;95743.81;;;2.76;61.86
9538;BME280;4807;48.024;11.726;2023-01-29T12:48:14;95740.13;;;2.97;60.78
9538;BME280;4807;48.024;11.726;2023-01-29T12:51:33;95736.47;;;2.79;61.03
9538;BME280;4807;48.024;11.726;2023-01-29T12:54:52;95731.81;;;2.52;61.95
9538;BME280;4807;48.024;11.726;2023-01-29T12:58:08;95728.09;;;2.55;61.96
9538;BME280;4807;48.024;11.726;2023-01-29T13:01:26;95719.56;;;2.32;62.56
9538;BME280;4807;48.024;11.726;2023-01-29T13:04:42;95711.09;;;2.68;61.73
9538;BME280;4807;48.024;11.726;2023-01-29T13:08:01;95705.91;;;2.88;61.94
9538;BME280;4807;48.024;11.726;2023-01-29T13:11:20;95697.59;;;2.83;61.37
9538;BME280;4807;48.024;11.726;2023-01-29T13:14:43;95699.19;;;2.55;62.10
9538;BME280;4807;48.024;11.726;2023-01-29T13:17:57;95693.69;;;2.67;62.06
9538;BME280;4807;48.024;11.726;2023-01-29T13:21:12;95688.69;;;2.64;61.63
9538;BME280;4807;48.024;11.726;2023-01-29T13:24:24;95679.13;;;2.63;61.47
9538;BME280;4807;48.024;11.726;2023-01-29T13:27:35;95680.31;;;2.40;62.78
9538;BME280;4807;48.024;11.726;2023-01-29T13:30:46;95675.69;;;2.23;64.60
9538;BME280;4807;48.024;11.726;2023-01-29T13:34:05;95670.03;;;1.97;66.02
9538;BME280;4807;48.024;11.726;2023-01-29T13:37:23;95667.72;;;2.04;65.01
9538;BME280;4807;48.024;11.726;2023-01-29T13:40:34;95658.50;;;2.09;65.04
9538;BME280;4807;48.024;11.726;2023-01-29T13:43:48;95662.63;;;2.12;64.62
9538;BME280;4807;48.024;11.726;2023-01-29T13:47:02;95657.75;;;1.98;66.53
9538;BME280;4807;48.024;11.726;2023-01-29T13:50:20;95658.09;;;1.63;65.95
9538;BME280;4807;48.024;11.726;2023-01-29T13:53:37;95663.28;;;1.95;65.33
9538;BME280;4807;48.024;11.726;2023-01-29T13:56:58;95653.81;;;1.41;66.53
9538;BME280;4807;48.024;11.726;2023-01-29T14:00:52;95658.38;;;0.86;69.55
9538;BME280;4807;48.024;11.726;2023-01-29T14:04:22;95654.28;;;0.93;69.74
9538;BME280;4807;48.024;11.726;2023-01-29T14:07:48;95656.94;;;0.82;68.65
9538;BME280;4807;48.024;11.726;2023-01-29T14:11:34;95643.06;;;0.70;66.75
9538;BME280;4807;48.024;11.726;2023-01-29T14:15:03;95641.06;;;0.63;67.74
9538;BME280;4807;48.024;11.726;2023-01-29T14:18:20;95639.91;;;0.56;68.38
9538;BME280;4807;48.024;11.726;2023-01-29T14:21:33;95639.69;;;0.25;69.82
9538;BME280;4807;48.024;11.726;2023-01-29T14:24:42;95635.56;;;0.12;70.09
9538;BME280;4807;48.024;11.726;2023-01-29T14:27:52;95628.38;;;0.25;71.14
9538;BME280;4807;48.024;11.726;2023-01-29T14:31:01;95628.56;;;0.55;68.77
9538;BME280;4807;48.024;11.726;2023-01-29T14:34:21;95625.56;;;0.60;68.55
9538;BME280;4807;48.024;11.726;2023-01-29T14:37:35;95638.72;;;0.49;68.67
9538;BME280;4807;48.024;11.726;2023-01-29T14:40:46;95638.75;;;0.26;69.42
9538;BME280;4807;48.024;11.726;2023-01-29T14:44:52;95647.25;;;0.08;70.36
9538;BME280;4807;48.024;11.726;2023-01-29T14:48:38;95665.72;;;0.49;71.34
9538;BME280;4807;48.024;11.726;2023-01-29T14:51:55;95664.25;;;0.79;71.28
9538;BME280;4807;48.024;11.726;2023-01-29T14:55:20;95659.63;;;1.03;69.01
9538;BME280;4807;48.024;11.726;2023-01-29T14:58:37;95657.28;;;1.21;69.51
9538;BME280;4807;48.024;11.726;2023-01-29T15:01:53;95641.00;;;1.06;67.96
9538;BME280;4807;48.024;11.726;2023-01-29T15:05:08;95648.94;;;0.63;69.74
9538;BME280;4807;48.024;11.726;2023-01-29T15:08:24;95650.81;;;0.72;70.56
9538;BME280;4807;48.024;11.726;2023-01-29T15:11:49;95650.81;;;0.61;69.92
9538;BME280;4807;48.024;11.726;2023-01-29T15:15:14;95640.63;;;0.47;69.60
9538;BME280;4807;48.024;11.726;2023-01-29T15:18:30;95634.38;;;0.05;70.99
9538;BME280;4807;48.024;11.726;2023-01-29T15:22:11;95632.38;;;-0.25;71.79
9538;BME280;4807;48.024;11.726;2023-01-29T15:25:20;95640.19;;;-0.36;72.72
9538;BME280;4807;48.024;11.726;2023-01-29T15:28:33;95637.44;;;-0.46;73.55
9538;BME280;4807;48.024;11.726;2023-01-29T15:31:42;95643.88;;;-0.50;73.53
9538;BME280;4807;48.024;11.726;2023-01-29T15:34:54;95660.28;;;-0.48;74.35
9538;BME280;4807;48.024;11.726;2023-01-29T15:38:14;95649.81;;;-0.59;74.44
9538;BME280;4807;48.024;11.726;2023-01-29T15:41:23;95649.44;;;-0.66;76.07
9538;BME280;4807;48.024;11.726;2023-01-29T15:44:33;95657.16;;;-0.64;75.75
9538;BME280;4807;48.024;11.726;2023-01-29T15:47:44;95652.16;;;-0.67;76.04
9538;BME280;4807;48.024;11.726;2023-01-29T15:50:54;95654.41;;;-0.74;76.25
9538;BME280;4807;48.024;11.726;2023-01-29T15:54:09;95647.00;;;-0.80;77.07
9538;BME280;4807;48.024;11.726;2023-01-29T15:57:26;95657.00;;;-0.85;76.09
9538;BME280;4807;48.024;11.726;2023-01-29T16:00:38;95646.75;;;-0.88;76.94
9538;BME280;4807;48.024;11.726;2023-01-29T16:03:49;95658.41;;;-0.92;77.01
9538;BME280;4807;48.024;11.726;2023-01-29T16:07:00;95668.13;;;-0.94;76.25
9538;BME280;4807;48.024;11.726;2023-01-29T16:10:17;95663.84;;;-0.95;75.64
9538;BME280;4807;48.024;11.726;2023-01-29T16:13:28;95657.78;;;-0.96;75.62
9538;BME280;4807;48.024;11.726;2023-01-29T16:16:38;95655.88;;;-0.94;76.48
9538;BME280;4807;48.024;11.726;2023-01-29T16:19:58;95665.28;;;-0.91;75.86
9538;BME280;4807;48.024;11.726;2023-01-29T16:23:16;95669.34;;;-0.87;75.87
9538;BME280;4807;48.024;11.726;2023-01-29T16:26:30;95672.69;;;-0.85;75.04
9538;BME280;4807;48.024;11.726;2023-01-29T16:29:40;95679.56;;;-0.84;74.62
9538;BME280;4807;48.024;11.726;2023-01-29T16:32:49;95686.69;;;-0.86;75.33
9538;BME280;4807;48.024;11.726;2023-01-29T16:36:01;95681.72;;;-0.89;75.26
9538;BME280;4807;48.024;11.726;2023-01-29T16:39:18;95690.34;;;-0.89;75.84
9538;BME280;4807;48.024;11.726;2023-01-29T16:42:29;95685.25;;;-0.90;75.58
9538;BME280;4807;48.024;11.726;2023-01-29T16:45:37;95693.94;;;-0.90;74.86
9538;BME280;4807;48.024;11.726;2023-01-29T16:48:46;95701.44;;;-0.85;74.95
9538;BME280;4807;48.024;11.726;2023-01-29T16:51:55;95704.78;;;-0.83;75.48
9538;BME280;4807;48.024;11.726;2023-01-29T16:55:19;95706.72;;;-0.74;75.86
9538;BME280;4807;48.024;11.726;2023-01-29T16:58:28;95722.50;;;-0.75;74.62
9538;BME280;4807;48.024;11.726;2023-01-29T17:01:37;95729.50;;;-0.76;74.37
9538;BME280;4807;48.024;11.726;2023-01-29T17:04:47;95717.88;;;-0.72;74.16
9538;BME280;4807;48.024;11.726;2023-01-29T17:07:56;95732.03;;;-0.74;75.08
9538;BME280;4807;48.024;11.726;2023-01-29T17:11:05;95720.47;;;-0.72;75.74
9538;BME280;4807;48.024;11.726;2023-01-29T17:14:18;95724.56;;;-0.68;75.95
9538;BME280;4807;48.024;11.726;2023-01-29T17:17:31;95718.41;;;-0.56;74.41
9538;BME280;4807;48.024;11.726;2023-01-29T17:20:41;95720.19;;;-0.56;75.15
9538;BME280;4807;48.024;11.726;2023-01-29T17:23:50;95727.22;;;-0.57;74.79
9538;BME280;4807;48.024;11.726;2023-01-29T17:27:00;95737.44;;;-0.54;74.66
9538;BME280;4807;48.024;11.726;2023-01-29T17:30:14;95729.25;;;-0.49;74.23
9538;BME280;4807;48.024;11.726;2023-01-29T17:33:24;95734.50;;;-0.49;74.28
9538;BME280;4807;48.024;11.726;2023-01-29T17:36:34;95739.16;;;-0.42;74.71
9538;BME280;4807;48.024;11.726;2023-01-29T17:39:49;95727.91;;;-0.55;75.03
9538;BME280;4807;48.024;11.726;2023-01-29T17:42:58;95730.31;;;-0.52;74.55
9538;BME280;4807;48.024;11.726;2023-01-29T17:46:12;95727.69;;;-0.52;74.94
9538;BME280;4807;48.024;11.726;2023-01-29T17:49:27;95732.19;;;-0.54;74.78
9538;BME280;4807;48.024;11.726;2023-01-29T17:52:37;95728.63;;;-0.53;75.20
9538;BME280;4807;48.024;11.726;2023-01-29T17:55:45;95729.59;;;-0.54;75.19
9538;BME280;4807;48.024;11.726;2023-01-29T17:58:54;95723.78;;;-0.46;74.03
9538;BME280;4807;48.024;11.726;2023-01-29T18:02:02;95719.31;;;-0.68;75.10
9538;BME280;4807;48.024;11.726;2023-01-29T18:05:12;95725.16;;;-0.64;75.40
9538;BME280;4807;48.024;11.726;2023-01-29T18:08:28;95722.19;;;-0.60;75.13
9538;BME280;4807;48.024;11.726;2023-01-29T18:11:37;95722.78;;;-0.56;75.64
9538;BME280;4807;48.024;11.726;2023-01-29T18:14:45;95719.84;;;-0.52;75.53
9538;BME280;4807;48.024;11.726;2023-01-29T18:17:54;95707.09;;;-0.56;75.83
9538;BME280;4807;48.024;11.726;2023-01-29T18:21:03;95711.53;;;-0.57;76.14
9538;BME280;4807;48.024;11.726;2023-01-29T18:24:12;95709.50;;;-0.53;75.03
9538;BME280;4807;48.024;11.726;2023-01-29T18:27:21;95714.47;;;-0.61;75.55
9538;BME280;4807;48.024;11.726;2023-01-29T18:30:30;95709.44;;;-0.64;76.09
9538;BME280;4807;48.024;11.726;2023-01-29T18:33:39;95712.22;;;-0.55;76.50
9538;BME280;4807;48.024;11.726;2023-01-29T18:36:47;95704.63;;;-0.58;76.30
9538;BME280;4807;48.024;11.726;2023-01-29T18:39:57;95697.81;;;-0.60;76.84
9538;BME280;4807;48.024;11.726;2023-01-29T18:43:06;95699.16;;;-0.55;75.52
9538;BME280;4807;48.024;11.726;2023-01-29T18:46:14;95704.53;;;-0.80;76.04
9538;BME280;4807;48.024;11.726;2023-01-29T18:49:22;95697.16;;;-0.86;77.13
9538;BME280;4807;48.024;11.726;2023-01-29T18:52:31;95698.91;;;-0.98;76.99
9538;BME280;4807;48.024;11.726;2023-01-29T18:55:41;95696.34;;;-1.10;76.67
9538;BME280;4807;48.024;11.726;2023-01-29T18:58:53;95702.34;;;-1.21;77.19
9538;BME280;4807;48.024;11.726;2023-01-29T19:02:02;95708.63;;;-1.24;77.32
9538;BME280;4807;48.024;11.726;2023-01-29T19:05:11;95711.16;;;-1.35;77.95
9538;BME280;4807;48.024;11.726;2023-01-29T19:08:19;95713.94;;;-1.49;78.63
9538;BME280;4807;48.024;11.726;2023-01-29T19:11:29;95712.03;;;-1.83;80.06
9538;BME280;4807;48.024;11.726;2023-01-29T19:14:38;95713.22;;;-2.00;80.51
9538;BME280;4807;48.024;11.726;2023-01-29T19:17:46;95705.38;;;-1.87;80.84
9538;BME280;4807;48.024;11.726;2023-01-29T19:20:55;95704.25;;;-2.09;80.71
9538;BME280;4807;48.024;11.726;2023-01-29T19:24:05;95702.78;;;-2.00;80.18
9538;BME280;4807;48.024;11.726;2023-01-29T19:27:17;95704.03;;;-2.06;80.78
9538;BME280;4807;48.024;11.726;2023-01-29T19:30:25;95709.38;;;-2.20;80.99
9538;BME280;4807;48.024;11.726;2023-01-29T19:33:34;95703.84;;;-2.28;80.83
9538;BME280;4807;48.024;11.726;2023-01-29T19:36:42;95698.00;;;-2.32;80.62
9538;BME280;4807;48.024;11.726;2023-01-29T19:39:51;95702.91;;;-2.27;81.36
9538;BME280;4807;48.024;11.726;2023-01-29T19:43:03;95694.78;;;-2.35;81.06
9538;BME280;4807;48.024;11.726;2023-01-29T19:46:11;95692.78;;;-2.44;81.02
9538;BME280;4807;48.024;11.726;2023-01-29T19:49:20;95696.53;;;-2.48;81.64
9538;BME280;4807;48.024;11.726;2023-01-29T19:52:28;95703.94;;;-2.55;81.98
9538;BME280;4807;48.024;11.726;2023-01-29T19:56:00;95694.66;;;-2.46;80.99
9538;BME280;4807;48.024;11.726;2023-01-29T19:59:11;95703.75;;;-2.52;81.57
9538;BME280;4807;48.024;11.726;2023-01-29T20:02:19;95701.94;;;-2.64;82.04
9538;BME280;4807;48.024;11.726;2023-01-29T20:05:28;95691.63;;;-2.65;82.38
9538;BME280;4807;48.024;11.726;2023-01-29T20:08:37;95687.97;;;-2.76;82.75
9538;BME280;4807;48.024;11.726;2023-01-29T20:11:45;95680.78;;;-2.72;83.18
9538;BME280;4807;48.024;11.726;2023-01-29T20:14:58;95683.47;;;-2.74;82.66
9538;BME280;4807;48.024;11.726;2023-01-29T20:18:06;95684.09;;;-2.83;83.01
9538;BME280;4807;48.024;11.726;2023-01-29T20:21:19;95686.38;;;-2.91;82.93
9538;BME280;4807;48.024;11.726;2023-01-29T20:24:29;95683.25;;;-2.96;83.41
9538;BME280;4807;48.024;11.726;2023-01-29T20:27:38;95677.38;;;-2.99;83.45
9538;BME280;4807;48.024;11.726;2023-01-29T20:30:47;95673.56;;;-2.94;83.37
9538;BME280;4807;48.024;11.726;2023-01-29T20:33:56;95677.84;;;-2.93;82.40
9538;BME280;4807;48.024;11.726;2023-01-29T20:37:05;95682.06;;;-3.04;83.19
9538;BME280;4807;48.024;11.726;2023-01-29T20:40:13;95674.69;;;-2.98;82.38
9538;BME280;4807;48.024;11.726;2023-01-29T20:43:22;95679.19;;;-3.00;83.10
9538;BME280;4807;48.024;11.726;2023-01-29T20:46:32;95683.66;;;-3.02;82.60
9538;BME280;4807;48.024;11.726;2023-01-29T20:49:41;95676.75;;;-3.03;82.18
9538;BME280;4807;48.024;11.726;2023-01-29T20:52:49;95674.94;;;-3.15;82.55
9538;BME280;4807;48.024;11.726;2023-01-29T20:55:59;95678.72;;;-3.19;82.72
9538;BME280;4807;48.024;11.726;2023-01-29T20:59:10;95675.59;;;-3.24;82.93
9538;BME280;4807;48.024;11.726;2023-01-29T21:02:20;95675.13;;;-3.31;83.36
9538;BME280;4807;48.024;11.726;2023-01-29T21:05:28;95677.28;;;-3.37;82.76
9538;BME280;4807;48.024;11.726;2023-01-29T21:08:38;95667.31;;;-3.31;82.46
9538;BME280;4807;48.024;11.726;2023-01-29T21:11:46;95660.25;;;-3.29;82.61
9538;BME280;4807;48.024;11.726;2023-01-29T21:14:55;95652.75;;;-3.33;82.31
9538;BME280;4807;48.024;11.726;2023-01-29T21:18:06;95658.56;;;-3.30;82.61
9538;BME280;4807;48.024;11.726;2023-01-29T21:21:14;95656.56;;;-3.39;83.41
9538;BME280;4807;48.024;11.726;2023-01-29T21:24:23;95658.25;;;-3.65;84.17
9538;BME280;4807;48.024;11.726;2023-01-29T21:27:31;95652.50;;;-3.70;83.67
9538;BME280;4807;48.024;11.726;2023-01-29T21:30:40;95659.19;;;-3.80;84.90
9538;BME280;4807;48.024;11.726;2023-01-29T21:33:50;95659.19;;;-3.80;84.71
9538;BME280;4807;48.024;11.726;2023-01-29T21:36:58;95657.94;;;-3.60;83.20
9538;BME280;4807;48.024;11.726;2023-01-29T21:40:09;95658.03;;;-3.62;83.40
9538;BME280;4807;48.024;11.726;2023-01-29T21:43:17;95656.75;;;-3.69;83.70
9538;BME280;4807;48.024;11.726;2023-01-29T21:46:26;95654.81;;;-3.65;83.29
9538;BME280;4807;48.024;11.726;2023-01-29T21:49:35;95653.50;;;-3.58;82.87
9538;BME280;4807;48.024;11.726;2023-01-29T21:52:45;95656.72;;;-3.55;83.05
9538;BME280;4807;48.024;11.726;2023-01-29T21:55:58;95652.19;;;-3.38;82.58
9538;BME280;4807;48.024;11.726;2023-01-29T21:59:08;95660.41;;;-3.44;81.54
9538;BME280;4807;48.024;11.726;2023-01-29T22:02:17;95650.19;;;-3.74;81.04
9538;BME280;4807;48.024;11.726;2023-01-29T22:05:28;95646.06;;;-3.91;82.04
9538;BME280;4807;48.024;11.726;2023-01-29T22:08:36;95641.59;;;-4.03;83.23
9538;BME280;4807;48.024;11.726;2023-01-29T22:11:45;95640.53;;;-4.28;83.66
9538;BME280;4807;48.024;11.726;2023-01-29T22:14:53;95642.13;;;-4.25;83.75
9538;BME280;4807;48.024;11.726;2023-01-29T22:18:01;95636.31;;;-4.02;83.35
9538;BME280;4807;48.024;11.726;2023-01-29T22:21:11;95636.56;;;-3.92;82.96
9538;BME280;4807;48.024;11.726;2023-01-29T22:24:20;95632.84;;;-3.88;82.31
9538;BME280;4807;48.024;11.726;2023-01-29T22:27:30;95627.59;;;-4.01;83.00
9538;BME280;4807;48.024;11.726;2023-01-29T22:30:38;95629.59;;;-3.92;83.39
9538;BME280;4807;48.024;11.726;2023-01-29T22:33:47;95628.25;;;-4.11;83.46
9538;BME280;4807;48.024;11.726;2023-01-29T22:36:59;95614.88;;;-4.19;83.58
9538;BME280;4807;48.024;11.726;2023-01-29T22:40:09;95608.00;;;-4.20;83.68
9538;BME280;4807;48.024;11.726;2023-01-29T22:43:17;95603.38;;;-4.15;83.08
9538;BME280;4807;48.024;11.726;2023-01-29T22:46:26;95612.38;;;-4.21;83.59
9538;BME280;4807;48.024;11.726;2023-01-29T22:49:34;95600.97;;;-4.18;83.58
9538;BME280;4807;48.024;11.726;2023-01-29T22:52:44;95593.50;;;-4.10;83.54
9538;BME280;4807;48.024;11.726;2023-01-29T22:55:59;95594.53;;;-4.13;83.67
9538;BME280;4807;48.024;11.726;2023-01-29T22:59:09;95600.97;;;-4.18;83.71
9538;BME280;4807;48.024;11.726;2023-01-29T23:02:17;95590.03;;;-3.97;82.49
9538;BME280;4807;48.024;11.726;2023-01-29T23:05:26;95593.69;;;-3.99;82.38
9538;BME280;4807;48.024;11.726;2023-01-29T23:08:35;95590.53;;;-4.04;83.12
9538;BME280;4807;48.024;11.726;2023-01-29T23:11:44;95585.31;;;-4.04;82.55
9538;BME280;4807;48.024;11.726;2023-01-29T23:14:52;95573.50;;;-4.22;82.68
9538;BME280;4807;48.024;11.726;2023-01-29T23:18:01;95572.00;;;-4.27;82.02
9538;BME280;4807;48.024;11.726;2023-01-29T23:21:10;95564.25;;;-4.41;83.19
9538;BME280;4807;48.024;11.726;2023-01-29T23:24:24;95566.50;;;-4.49;83.92
9538;BME280;4807;48.024;11.726;2023-01-29T23:27:33;95565.59;;;-4.62;84.41
9538;BME280;4807;48.024;11.726;2023-01-29T23:30:40;95558.50;;;-4.46;83.87
9538;BME280;4807;48.024;11.726;2023-01-29T23:33:48;95549.75;;;-4.31;83.90
9538;BME280;4807;48.024;11.726;2023-01-29T23:36:57;95551.44;;;-4.44;83.63
9538;BME280;4807;48.024;11.726;2023-01-29T23:40:09;95541.03;;;-4.30;82.90